sensor_id;sensor_type;location;lat;lon;timestamp;P1;durP1;ratioP1;P2;durP2;ratioP2
41426;SDS011;27171;51.812;19.514;2022-10-16T00:01:41;9.18;;;7.97;;
41426;SDS011;27171;51.812;19.514;2022-10-16T00:04:42;9.63;;;8.68;;
41426;SDS011;27171;51.812;19.514;2022-10-16T00:07:43;13.10;;;9.23;;
41426;SDS011;27171;51.812;19.514;2022-10-16T00:10:44;8.90;;;8.00;;
41426;SDS011;27171;51.812;19.514;2022-10-16T00:13:46;10.55;;;8.23;;
41426;SDS011;27171;51.812;19.514;2022-10-16T00:16:48;10.90;;;8.55;;
41426;SDS011;27171;51.812;19.514;2022-10-16T00:19:49;10.77;;;8.98;;
41426;SDS011;27171;51.812;19.514;2022-10-16T00:23:04;9.38;;;8.45;;
41426;SDS011;27171;51.812;19.514;2022-10-16T00:26:09;9.95;;;8.90;;
41426;SDS011;27171;51.812;19.514;2022-10-16T00:29:13;9.93;;;8.73;;
41426;SDS011;27171;51.812;19.514;2022-10-16T00:32:14;9.95;;;8.60;;
41426;SDS011;27171;51.812;19.514;2022-10-16T00:35:15;9.00;;;8.05;;
41426;SDS011;27171;51.812;19.514;2022-10-16T00:38:16;9.77;;;8.65;;
41426;SDS011;27171;51.812;19.514;2022-10-16T00:41:18;10.35;;;8.73;;
41426;SDS011;27171;51.812;19.514;2022-10-16T00:47:48;9.32;;;8.32;;
41426;SDS011;27171;51.812;19.514;2022-10-16T00:50:52;10.00;;;9.00;;
41426;SDS011;27171;51.812;19.514;2022-10-16T00:53:53;11.48;;;8.70;;
41426;SDS011;27171;51.812;19.514;2022-10-16T00:56:56;8.50;;;7.60;;
41426;SDS011;27171;51.812;19.514;2022-10-16T00:59:59;9.15;;;8.23;;
41426;SDS011;27171;51.812;19.514;2022-10-16T01:03:02;13.90;;;8.77;;
41426;SDS011;27171;51.812;19.514;2022-10-16T01:09:32;8.75;;;7.55;;
41426;SDS011;27171;51.812;19.514;2022-10-16T01:12:50;13.18;;;8.90;;
41426;SDS011;27171;51.812;19.514;2022-10-16T01:16:09;9.80;;;8.80;;
41426;SDS011;27171;51.812;19.514;2022-10-16T01:22:25;9.43;;;8.27;;
41426;SDS011;27171;51.812;19.514;2022-10-16T01:25:53;10.57;;;8.55;;
41426;SDS011;27171;51.812;19.514;2022-10-16T01:29:03;9.90;;;8.60;;
41426;SDS011;27171;51.812;19.514;2022-10-16T01:32:25;10.38;;;9.30;;
41426;SDS011;27171;51.812;19.514;2022-10-16T01:35:37;10.38;;;8.57;;
41426;SDS011;27171;51.812;19.514;2022-10-16T01:38:42;9.68;;;7.78;;
41426;SDS011;27171;51.812;19.514;2022-10-16T01:41:48;9.45;;;8.52;;
41426;SDS011;27171;51.812;19.514;2022-10-16T01:44:55;9.73;;;8.65;;
41426;SDS011;27171;51.812;19.514;2022-10-16T01:48:00;9.50;;;8.50;;
41426;SDS011;27171;51.812;19.514;2022-10-16T01:51:06;11.43;;;8.55;;
41426;SDS011;27171;51.812;19.514;2022-10-16T01:54:13;11.05;;;8.63;;
41426;SDS011;27171;51.812;19.514;2022-10-16T01:57:16;10.50;;;8.40;;
41426;SDS011;27171;51.812;19.514;2022-10-16T02:00:23;9.02;;;8.05;;
41426;SDS011;27171;51.812;19.514;2022-10-16T02:03:25;9.57;;;8.57;;
41426;SDS011;27171;51.812;19.514;2022-10-16T02:06:26;10.57;;;8.38;;
41426;SDS011;27171;51.812;19.514;2022-10-16T02:09:28;9.98;;;8.82;;
41426;SDS011;27171;51.812;19.514;2022-10-16T02:12:31;10.05;;;8.65;;
41426;SDS011;27171;51.812;19.514;2022-10-16T02:15:36;10.50;;;9.02;;
41426;SDS011;27171;51.812;19.514;2022-10-16T02:18:38;10.07;;;9.07;;
41426;SDS011;27171;51.812;19.514;2022-10-16T02:28:03;10.75;;;9.65;;
41426;SDS011;27171;51.812;19.514;2022-10-16T02:31:12;10.02;;;9.00;;
41426;SDS011;27171;51.812;19.514;2022-10-16T02:34:19;10.60;;;9.43;;
41426;SDS011;27171;51.812;19.514;2022-10-16T02:37:23;10.07;;;8.85;;
41426;SDS011;27171;51.812;19.514;2022-10-16T02:40:26;11.63;;;10.15;;
41426;SDS011;27171;51.812;19.514;2022-10-16T02:43:28;11.48;;;10.27;;
41426;SDS011;27171;51.812;19.514;2022-10-16T02:46:29;12.20;;;10.90;;
41426;SDS011;27171;51.812;19.514;2022-10-16T02:49:30;12.73;;;11.43;;
41426;SDS011;27171;51.812;19.514;2022-10-16T02:52:31;13.02;;;11.07;;
41426;SDS011;27171;51.812;19.514;2022-10-16T02:55:32;13.55;;;11.40;;
41426;SDS011;27171;51.812;19.514;2022-10-16T02:58:33;13.52;;;11.65;;
41426;SDS011;27171;51.812;19.514;2022-10-16T03:01:35;12.18;;;10.90;;
41426;SDS011;27171;51.812;19.514;2022-10-16T03:04:36;13.95;;;12.38;;
41426;SDS011;27171;51.812;19.514;2022-10-16T03:07:37;12.73;;;10.95;;
41426;SDS011;27171;51.812;19.514;2022-10-16T03:10:39;14.98;;;12.25;;
41426;SDS011;27171;51.812;19.514;2022-10-16T03:13:40;15.45;;;13.27;;
41426;SDS011;27171;51.812;19.514;2022-10-16T03:16:41;17.73;;;13.40;;
41426;SDS011;27171;51.812;19.514;2022-10-16T03:19:42;16.50;;;12.93;;
41426;SDS011;27171;51.812;19.514;2022-10-16T03:22:43;14.25;;;11.77;;
41426;SDS011;27171;51.812;19.514;2022-10-16T03:25:45;14.68;;;13.07;;
41426;SDS011;27171;51.812;19.514;2022-10-16T03:28:46;14.80;;;13.23;;
41426;SDS011;27171;51.812;19.514;2022-10-16T03:31:47;17.10;;;13.55;;
41426;SDS011;27171;51.812;19.514;2022-10-16T03:34:48;15.73;;;14.13;;
41426;SDS011;27171;51.812;19.514;2022-10-16T03:37:49;16.13;;;12.52;;
41426;SDS011;27171;51.812;19.514;2022-10-16T03:40:51;14.75;;;13.02;;
41426;SDS011;27171;51.812;19.514;2022-10-16T03:43:52;18.50;;;14.38;;
41426;SDS011;27171;51.812;19.514;2022-10-16T03:46:53;16.95;;;13.48;;
41426;SDS011;27171;51.812;19.514;2022-10-16T03:49:54;19.25;;;14.60;;
41426;SDS011;27171;51.812;19.514;2022-10-16T03:52:55;13.25;;;11.43;;
41426;SDS011;27171;51.812;19.514;2022-10-16T03:55:57;16.10;;;12.32;;
41426;SDS011;27171;51.812;19.514;2022-10-16T03:58:58;15.60;;;13.63;;
41426;SDS011;27171;51.812;19.514;2022-10-16T04:01:59;16.27;;;13.65;;
41426;SDS011;27171;51.812;19.514;2022-10-16T04:05:00;15.43;;;13.82;;
41426;SDS011;27171;51.812;19.514;2022-10-16T04:08:02;16.20;;;14.13;;
41426;SDS011;27171;51.812;19.514;2022-10-16T04:11:03;16.00;;;14.23;;
41426;SDS011;27171;51.812;19.514;2022-10-16T04:14:05;16.25;;;13.32;;
41426;SDS011;27171;51.812;19.514;2022-10-16T04:17:06;16.73;;;14.20;;
41426;SDS011;27171;51.812;19.514;2022-10-16T04:20:07;16.17;;;14.50;;
41426;SDS011;27171;51.812;19.514;2022-10-16T04:23:08;15.07;;;12.80;;
41426;SDS011;27171;51.812;19.514;2022-10-16T04:26:09;16.33;;;14.60;;
41426;SDS011;27171;51.812;19.514;2022-10-16T04:29:11;16.45;;;14.77;;
41426;SDS011;27171;51.812;19.514;2022-10-16T04:32:12;15.40;;;13.85;;
41426;SDS011;27171;51.812;19.514;2022-10-16T04:35:13;16.13;;;14.48;;
41426;SDS011;27171;51.812;19.514;2022-10-16T04:38:14;18.38;;;15.05;;
41426;SDS011;27171;51.812;19.514;2022-10-16T04:44:16;16.02;;;12.30;;
41426;SDS011;27171;51.812;19.514;2022-10-16T04:47:17;18.65;;;15.02;;
41426;SDS011;27171;51.812;19.514;2022-10-16T04:50:19;17.27;;;15.45;;
41426;SDS011;27171;51.812;19.514;2022-10-16T04:53:35;16.67;;;14.75;;
41426;SDS011;27171;51.812;19.514;2022-10-16T04:56:36;17.70;;;15.27;;
41426;SDS011;27171;51.812;19.514;2022-10-16T04:59:37;16.38;;;13.90;;
41426;SDS011;27171;51.812;19.514;2022-10-16T05:02:38;15.68;;;13.02;;
41426;SDS011;27171;51.812;19.514;2022-10-16T05:05:43;18.08;;;16.17;;
41426;SDS011;27171;51.812;19.514;2022-10-16T05:08:45;17.65;;;14.77;;
41426;SDS011;27171;51.812;19.514;2022-10-16T05:11:46;18.85;;;15.07;;
41426;SDS011;27171;51.812;19.514;2022-10-16T05:14:47;17.15;;;14.65;;
41426;SDS011;27171;51.812;19.514;2022-10-16T05:17:51;15.68;;;13.98;;
41426;SDS011;27171;51.812;19.514;2022-10-16T05:20:56;16.42;;;14.40;;
41426;SDS011;27171;51.812;19.514;2022-10-16T05:23:57;18.35;;;15.73;;
41426;SDS011;27171;51.812;19.514;2022-10-16T05:26:58;14.90;;;13.20;;
41426;SDS011;27171;51.812;19.514;2022-10-16T05:29:59;16.10;;;13.60;;
41426;SDS011;27171;51.812;19.514;2022-10-16T05:33:00;14.07;;;12.68;;
41426;SDS011;27171;51.812;19.514;2022-10-16T05:36:02;14.88;;;13.38;;
41426;SDS011;27171;51.812;19.514;2022-10-16T05:39:07;14.45;;;13.00;;
41426;SDS011;27171;51.812;19.514;2022-10-16T05:42:09;13.75;;;12.35;;
41426;SDS011;27171;51.812;19.514;2022-10-16T05:45:14;15.48;;;13.95;;
41426;SDS011;27171;51.812;19.514;2022-10-16T05:48:16;16.13;;;12.88;;
41426;SDS011;27171;51.812;19.514;2022-10-16T05:51:17;18.30;;;13.57;;
41426;SDS011;27171;51.812;19.514;2022-10-16T05:54:19;15.30;;;13.18;;
41426;SDS011;27171;51.812;19.514;2022-10-16T05:57:20;15.60;;;14.00;;
41426;SDS011;27171;51.812;19.514;2022-10-16T06:00:21;15.55;;;13.52;;
41426;SDS011;27171;51.812;19.514;2022-10-16T06:03:22;15.07;;;13.52;;
41426;SDS011;27171;51.812;19.514;2022-10-16T06:06:25;15.65;;;12.57;;
41426;SDS011;27171;51.812;19.514;2022-10-16T06:09:28;16.00;;;13.27;;
41426;SDS011;27171;51.812;19.514;2022-10-16T06:12:29;15.25;;;13.65;;
41426;SDS011;27171;51.812;19.514;2022-10-16T06:15:30;14.40;;;12.63;;
41426;SDS011;27171;51.812;19.514;2022-10-16T06:18:31;14.70;;;13.07;;
41426;SDS011;27171;51.812;19.514;2022-10-16T06:21:33;14.70;;;12.63;;
41426;SDS011;27171;51.812;19.514;2022-10-16T06:24:34;13.13;;;11.75;;
41426;SDS011;27171;51.812;19.514;2022-10-16T06:27:35;13.20;;;11.90;;
41426;SDS011;27171;51.812;19.514;2022-10-16T06:30:36;14.73;;;12.57;;
41426;SDS011;27171;51.812;19.514;2022-10-16T06:33:37;14.07;;;12.50;;
41426;SDS011;27171;51.812;19.514;2022-10-16T06:36:39;13.82;;;12.43;;
41426;SDS011;27171;51.812;19.514;2022-10-16T06:39:40;15.65;;;12.43;;
41426;SDS011;27171;51.812;19.514;2022-10-16T06:42:42;13.35;;;12.02;;
41426;SDS011;27171;51.812;19.514;2022-10-16T06:45:43;11.80;;;10.60;;
41426;SDS011;27171;51.812;19.514;2022-10-16T06:48:50;13.90;;;12.05;;
41426;SDS011;27171;51.812;19.514;2022-10-16T06:51:51;14.43;;;11.73;;
41426;SDS011;27171;51.812;19.514;2022-10-16T06:54:53;13.23;;;11.23;;
41426;SDS011;27171;51.812;19.514;2022-10-16T06:57:54;12.70;;;11.40;;
41426;SDS011;27171;51.812;19.514;2022-10-16T07:00:55;12.15;;;10.95;;
41426;SDS011;27171;51.812;19.514;2022-10-16T07:03:57;12.07;;;10.88;;
41426;SDS011;27171;51.812;19.514;2022-10-16T07:06:59;13.13;;;11.82;;
41426;SDS011;27171;51.812;19.514;2022-10-16T07:10:01;11.68;;;10.48;;
41426;SDS011;27171;51.812;19.514;2022-10-16T07:13:02;13.45;;;12.02;;
41426;SDS011;27171;51.812;19.514;2022-10-16T07:16:07;14.30;;;12.43;;
41426;SDS011;27171;51.812;19.514;2022-10-16T07:19:17;14.13;;;12.48;;
41426;SDS011;27171;51.812;19.514;2022-10-16T07:22:18;13.43;;;12.13;;
41426;SDS011;27171;51.812;19.514;2022-10-16T07:25:19;15.57;;;12.88;;
41426;SDS011;27171;51.812;19.514;2022-10-16T07:28:20;12.75;;;11.45;;
41426;SDS011;27171;51.812;19.514;2022-10-16T07:31:22;13.95;;;12.55;;
41426;SDS011;27171;51.812;19.514;2022-10-16T07:34:23;13.93;;;12.57;;
41426;SDS011;27171;51.812;19.514;2022-10-16T07:37:24;14.23;;;11.70;;
41426;SDS011;27171;51.812;19.514;2022-10-16T07:40:25;12.82;;;11.52;;
41426;SDS011;27171;51.812;19.514;2022-10-16T07:43:27;13.27;;;11.48;;
41426;SDS011;27171;51.812;19.514;2022-10-16T07:46:35;12.55;;;11.25;;
41426;SDS011;27171;51.812;19.514;2022-10-16T07:49:37;12.57;;;11.32;;
41426;SDS011;27171;51.812;19.514;2022-10-16T07:52:39;13.73;;;12.30;;
41426;SDS011;27171;51.812;19.514;2022-10-16T07:56:03;12.82;;;11.52;;
41426;SDS011;27171;51.812;19.514;2022-10-16T07:59:07;12.95;;;11.48;;
41426;SDS011;27171;51.812;19.514;2022-10-16T08:02:10;11.40;;;10.32;;
41426;SDS011;27171;51.812;19.514;2022-10-16T08:05:13;12.68;;;10.80;;
41426;SDS011;27171;51.812;19.514;2022-10-16T08:11:26;12.10;;;10.85;;
41426;SDS011;27171;51.812;19.514;2022-10-16T08:14:27;12.05;;;10.68;;
41426;SDS011;27171;51.812;19.514;2022-10-16T08:17:30;10.88;;;9.85;;
41426;SDS011;27171;51.812;19.514;2022-10-16T08:20:33;11.90;;;10.80;;
41426;SDS011;27171;51.812;19.514;2022-10-16T08:23:34;12.90;;;11.57;;
41426;SDS011;27171;51.812;19.514;2022-10-16T08:26:35;15.45;;;13.57;;
41426;SDS011;27171;51.812;19.514;2022-10-16T08:29:40;12.65;;;11.23;;
41426;SDS011;27171;51.812;19.514;2022-10-16T08:32:42;13.18;;;11.85;;
41426;SDS011;27171;51.812;19.514;2022-10-16T08:36:05;12.32;;;11.13;;
41426;SDS011;27171;51.812;19.514;2022-10-16T08:39:20;12.70;;;11.50;;
41426;SDS011;27171;51.812;19.514;2022-10-16T08:49:16;11.77;;;10.57;;
41426;SDS011;27171;51.812;19.514;2022-10-16T08:52:18;11.63;;;10.48;;
41426;SDS011;27171;51.812;19.514;2022-10-16T08:58:39;10.82;;;9.73;;
41426;SDS011;27171;51.812;19.514;2022-10-16T09:02:00;11.85;;;10.63;;
41426;SDS011;27171;51.812;19.514;2022-10-16T09:05:02;12.30;;;11.00;;
41426;SDS011;27171;51.812;19.514;2022-10-16T09:08:17;12.32;;;11.05;;
41426;SDS011;27171;51.812;19.514;2022-10-16T09:17:56;14.07;;;11.30;;
41426;SDS011;27171;51.812;19.514;2022-10-16T09:21:24;11.18;;;10.07;;
41426;SDS011;27171;51.812;19.514;2022-10-16T09:24:29;11.85;;;10.65;;
41426;SDS011;27171;51.812;19.514;2022-10-16T09:27:30;11.45;;;10.25;;
41426;SDS011;27171;51.812;19.514;2022-10-16T09:30:32;11.43;;;10.30;;
41426;SDS011;27171;51.812;19.514;2022-10-16T09:33:33;10.95;;;9.85;;
41426;SDS011;27171;51.812;19.514;2022-10-16T09:36:42;12.55;;;10.23;;
41426;SDS011;27171;51.812;19.514;2022-10-16T09:39:46;12.23;;;11.02;;
41426;SDS011;27171;51.812;19.514;2022-10-16T09:42:53;11.82;;;10.43;;
41426;SDS011;27171;51.812;19.514;2022-10-16T09:50:27;11.35;;;9.93;;
41426;SDS011;27171;51.812;19.514;2022-10-16T09:53:39;11.10;;;9.75;;
41426;SDS011;27171;51.812;19.514;2022-10-16T09:56:44;11.13;;;9.77;;
41426;SDS011;27171;51.812;19.514;2022-10-16T09:59:53;10.77;;;9.77;;
41426;SDS011;27171;51.812;19.514;2022-10-16T10:02:55;10.40;;;9.40;;
41426;SDS011;27171;51.812;19.514;2022-10-16T10:05:57;9.57;;;8.68;;
41426;SDS011;27171;51.812;19.514;2022-10-16T10:12:02;9.70;;;8.73;;
41426;SDS011;27171;51.812;19.514;2022-10-16T10:15:10;12.15;;;9.25;;
41426;SDS011;27171;51.812;19.514;2022-10-16T10:18:19;11.73;;;9.07;;
41426;SDS011;27171;51.812;19.514;2022-10-16T10:21:46;9.73;;;8.73;;
41426;SDS011;27171;51.812;19.514;2022-10-16T10:24:54;10.05;;;8.95;;
41426;SDS011;27171;51.812;19.514;2022-10-16T10:31:12;9.32;;;8.38;;
41426;SDS011;27171;51.812;19.514;2022-10-16T10:47:36;9.00;;;8.10;;
41426;SDS011;27171;51.812;19.514;2022-10-16T10:54:15;9.25;;;7.82;;
41426;SDS011;27171;51.812;19.514;2022-10-16T10:57:44;9.90;;;8.18;;
41426;SDS011;27171;51.812;19.514;2022-10-16T11:07:14;7.88;;;7.07;;
41426;SDS011;27171;51.812;19.514;2022-10-16T11:10:19;7.75;;;6.97;;
41426;SDS011;27171;51.812;19.514;2022-10-16T11:16:52;8.10;;;7.20;;
41426;SDS011;27171;51.812;19.514;2022-10-16T11:20:12;7.22;;;6.47;;
41426;SDS011;27171;51.812;19.514;2022-10-16T11:26:44;6.70;;;6.00;;
41426;SDS011;27171;51.812;19.514;2022-10-16T11:29:55;6.97;;;6.28;;
41426;SDS011;27171;51.812;19.514;2022-10-16T11:33:04;8.00;;;5.88;;
41426;SDS011;27171;51.812;19.514;2022-10-16T11:39:35;6.63;;;5.78;;
41426;SDS011;27171;51.812;19.514;2022-10-16T11:42:40;6.75;;;5.95;;
41426;SDS011;27171;51.812;19.514;2022-10-16T11:45:51;6.32;;;5.72;;
41426;SDS011;27171;51.812;19.514;2022-10-16T11:49:08;6.63;;;5.53;;
41426;SDS011;27171;51.812;19.514;2022-10-16T11:55:27;5.65;;;4.93;;
41426;SDS011;27171;51.812;19.514;2022-10-16T11:58:31;6.47;;;5.10;;
41426;SDS011;27171;51.812;19.514;2022-10-16T12:01:43;5.57;;;4.57;;
41426;SDS011;27171;51.812;19.514;2022-10-16T12:05:15;5.17;;;4.67;;
41426;SDS011;27171;51.812;19.514;2022-10-16T12:08:15;6.85;;;4.53;;
41426;SDS011;27171;51.812;19.514;2022-10-16T12:11:30;6.35;;;5.75;;
41426;SDS011;27171;51.812;19.514;2022-10-16T12:14:38;5.30;;;4.80;;
41426;SDS011;27171;51.812;19.514;2022-10-16T12:17:40;5.25;;;4.75;;
41426;SDS011;27171;51.812;19.514;2022-10-16T12:20:41;4.80;;;4.40;;
41426;SDS011;27171;51.812;19.514;2022-10-16T12:23:52;4.38;;;3.88;;
41426;SDS011;27171;51.812;19.514;2022-10-16T12:26:56;4.47;;;4.07;;
41426;SDS011;27171;51.812;19.514;2022-10-16T12:29:59;5.32;;;4.13;;
41426;SDS011;27171;51.812;19.514;2022-10-16T12:33:26;4.53;;;4.05;;
41426;SDS011;27171;51.812;19.514;2022-10-16T12:36:29;5.10;;;4.25;;
41426;SDS011;27171;51.812;19.514;2022-10-16T12:39:33;10.73;;;4.22;;
41426;SDS011;27171;51.812;19.514;2022-10-16T12:42:34;5.05;;;4.38;;
41426;SDS011;27171;51.812;19.514;2022-10-16T12:45:36;4.35;;;3.95;;
41426;SDS011;27171;51.812;19.514;2022-10-16T12:48:37;7.07;;;5.00;;
41426;SDS011;27171;51.812;19.514;2022-10-16T12:51:40;4.53;;;3.90;;
41426;SDS011;27171;51.812;19.514;2022-10-16T12:54:43;4.32;;;3.90;;
41426;SDS011;27171;51.812;19.514;2022-10-16T13:00:57;7.43;;;4.72;;
41426;SDS011;27171;51.812;19.514;2022-10-16T13:04:09;4.57;;;4.07;;
41426;SDS011;27171;51.812;19.514;2022-10-16T13:07:22;5.35;;;4.22;;
41426;SDS011;27171;51.812;19.514;2022-10-16T13:10:40;5.05;;;4.25;;
41426;SDS011;27171;51.812;19.514;2022-10-16T13:14:01;4.85;;;4.03;;
41426;SDS011;27171;51.812;19.514;2022-10-16T13:30:25;5.18;;;4.68;;
41426;SDS011;27171;51.812;19.514;2022-10-16T13:33:39;5.22;;;4.63;;
41426;SDS011;27171;51.812;19.514;2022-10-16T13:36:44;5.13;;;4.63;;
41426;SDS011;27171;51.812;19.514;2022-10-16T13:39:50;5.97;;;5.38;;
41426;SDS011;27171;51.812;19.514;2022-10-16T13:42:51;6.75;;;5.30;;
41426;SDS011;27171;51.812;19.514;2022-10-16T13:46:00;5.57;;;5.05;;
41426;SDS011;27171;51.812;19.514;2022-10-16T13:49:14;7.00;;;5.03;;
41426;SDS011;27171;51.812;19.514;2022-10-16T13:52:18;5.50;;;4.97;;
41426;SDS011;27171;51.812;19.514;2022-10-16T13:55:21;5.97;;;4.88;;
41426;SDS011;27171;51.812;19.514;2022-10-16T13:58:22;5.88;;;5.00;;
41426;SDS011;27171;51.812;19.514;2022-10-16T14:01:24;5.28;;;4.78;;
41426;SDS011;27171;51.812;19.514;2022-10-16T14:04:29;7.28;;;5.15;;
41426;SDS011;27171;51.812;19.514;2022-10-16T14:07:33;5.60;;;5.05;;
41426;SDS011;27171;51.812;19.514;2022-10-16T14:10:35;6.28;;;5.10;;
41426;SDS011;27171;51.812;19.514;2022-10-16T14:13:40;5.68;;;5.07;;
41426;SDS011;27171;51.812;19.514;2022-10-16T14:16:44;7.70;;;5.78;;
41426;SDS011;27171;51.812;19.514;2022-10-16T14:19:46;7.20;;;5.68;;
41426;SDS011;27171;51.812;19.514;2022-10-16T14:22:49;6.13;;;5.32;;
41426;SDS011;27171;51.812;19.514;2022-10-16T14:26:20;5.55;;;4.85;;
41426;SDS011;27171;51.812;19.514;2022-10-16T14:29:24;6.90;;;5.43;;
41426;SDS011;27171;51.812;19.514;2022-10-16T14:32:27;6.65;;;5.90;;
41426;SDS011;27171;51.812;19.514;2022-10-16T14:35:36;7.85;;;5.88;;
41426;SDS011;27171;51.812;19.514;2022-10-16T14:38:39;6.82;;;6.13;;
41426;SDS011;27171;51.812;19.514;2022-10-16T14:41:46;8.75;;;6.20;;
41426;SDS011;27171;51.812;19.514;2022-10-16T14:44:49;7.88;;;6.47;;
41426;SDS011;27171;51.812;19.514;2022-10-16T14:47:58;9.40;;;6.90;;
41426;SDS011;27171;51.812;19.514;2022-10-16T14:51:05;7.20;;;5.72;;
41426;SDS011;27171;51.812;19.514;2022-10-16T14:54:10;9.90;;;6.07;;
41426;SDS011;27171;51.812;19.514;2022-10-16T14:57:19;7.32;;;6.38;;
41426;SDS011;27171;51.812;19.514;2022-10-16T15:03:26;6.13;;;5.53;;
41426;SDS011;27171;51.812;19.514;2022-10-16T15:06:27;9.00;;;6.65;;
41426;SDS011;27171;51.812;19.514;2022-10-16T15:09:29;11.05;;;6.93;;
41426;SDS011;27171;51.812;19.514;2022-10-16T15:12:30;8.27;;;6.50;;
41426;SDS011;27171;51.812;19.514;2022-10-16T15:15:35;7.22;;;6.47;;
41426;SDS011;27171;51.812;19.514;2022-10-16T15:18:46;7.90;;;6.85;;
41426;SDS011;27171;51.812;19.514;2022-10-16T15:21:47;8.88;;;7.07;;
41426;SDS011;27171;51.812;19.514;2022-10-16T15:24:48;7.68;;;6.63;;
41426;SDS011;27171;51.812;19.514;2022-10-16T15:27:50;8.00;;;7.03;;
41426;SDS011;27171;51.812;19.514;2022-10-16T15:30:55;7.88;;;7.07;;
41426;SDS011;27171;51.812;19.514;2022-10-16T15:33:57;8.35;;;7.45;;
41426;SDS011;27171;51.812;19.514;2022-10-16T15:36:58;8.48;;;7.57;;
41426;SDS011;27171;51.812;19.514;2022-10-16T15:40:04;8.70;;;7.85;;
41426;SDS011;27171;51.812;19.514;2022-10-16T15:43:06;9.88;;;7.80;;
41426;SDS011;27171;51.812;19.514;2022-10-16T15:46:11;10.35;;;8.13;;
41426;SDS011;27171;51.812;19.514;2022-10-16T15:49:13;9.05;;;8.15;;
41426;SDS011;27171;51.812;19.514;2022-10-16T15:52:15;12.05;;;8.25;;
41426;SDS011;27171;51.812;19.514;2022-10-16T15:55:16;10.48;;;8.20;;
41426;SDS011;27171;51.812;19.514;2022-10-16T15:58:17;11.70;;;9.27;;
41426;SDS011;27171;51.812;19.514;2022-10-16T16:01:19;9.43;;;8.50;;
41426;SDS011;27171;51.812;19.514;2022-10-16T16:04:20;13.15;;;8.98;;
41426;SDS011;27171;51.812;19.514;2022-10-16T16:07:22;10.13;;;8.73;;
41426;SDS011;27171;51.812;19.514;2022-10-16T16:10:23;9.50;;;8.57;;
41426;SDS011;27171;51.812;19.514;2022-10-16T16:13:24;10.13;;;8.48;;
41426;SDS011;27171;51.812;19.514;2022-10-16T16:16:25;12.80;;;9.80;;
41426;SDS011;27171;51.812;19.514;2022-10-16T16:19:26;11.45;;;9.35;;
41426;SDS011;27171;51.812;19.514;2022-10-16T16:22:27;11.32;;;9.35;;
41426;SDS011;27171;51.812;19.514;2022-10-16T16:25:28;10.93;;;8.82;;
41426;SDS011;27171;51.812;19.514;2022-10-16T16:28:29;13.20;;;10.88;;
41426;SDS011;27171;51.812;19.514;2022-10-16T16:31:32;11.75;;;10.55;;
41426;SDS011;27171;51.812;19.514;2022-10-16T16:34:33;12.63;;;10.70;;
41426;SDS011;27171;51.812;19.514;2022-10-16T16:37:34;12.02;;;9.65;;
41426;SDS011;27171;51.812;19.514;2022-10-16T16:40:35;11.18;;;10.07;;
41426;SDS011;27171;51.812;19.514;2022-10-16T16:43:36;10.57;;;9.48;;
41426;SDS011;27171;51.812;19.514;2022-10-16T16:46:38;13.13;;;10.80;;
41426;SDS011;27171;51.812;19.514;2022-10-16T16:49:39;10.85;;;9.75;;
41426;SDS011;27171;51.812;19.514;2022-10-16T16:52:40;12.95;;;9.55;;
41426;SDS011;27171;51.812;19.514;2022-10-16T16:55:41;11.35;;;10.25;;
41426;SDS011;27171;51.812;19.514;2022-10-16T16:58:46;12.30;;;9.65;;
41426;SDS011;27171;51.812;19.514;2022-10-16T17:01:48;12.88;;;10.88;;
41426;SDS011;27171;51.812;19.514;2022-10-16T17:04:50;11.07;;;9.30;;
41426;SDS011;27171;51.812;19.514;2022-10-16T17:07:51;11.75;;;10.55;;
41426;SDS011;27171;51.812;19.514;2022-10-16T17:10:52;12.98;;;11.00;;
41426;SDS011;27171;51.812;19.514;2022-10-16T17:13:54;12.88;;;11.23;;
41426;SDS011;27171;51.812;19.514;2022-10-16T17:16:57;12.50;;;11.20;;
41426;SDS011;27171;51.812;19.514;2022-10-16T17:20:01;14.85;;;12.75;;
41426;SDS011;27171;51.812;19.514;2022-10-16T17:23:02;14.23;;;12.57;;
41426;SDS011;27171;51.812;19.514;2022-10-16T17:26:05;23.42;;;18.55;;
41426;SDS011;27171;51.812;19.514;2022-10-16T17:29:11;18.00;;;15.95;;
41426;SDS011;27171;51.812;19.514;2022-10-16T17:32:12;18.00;;;15.43;;
41426;SDS011;27171;51.812;19.514;2022-10-16T17:35:14;16.20;;;13.55;;
41426;SDS011;27171;51.812;19.514;2022-10-16T17:38:15;15.30;;;13.35;;
41426;SDS011;27171;51.812;19.514;2022-10-16T17:41:17;15.20;;;13.50;;
41426;SDS011;27171;51.812;19.514;2022-10-16T17:44:20;16.77;;;14.55;;
41426;SDS011;27171;51.812;19.514;2022-10-16T17:47:21;16.10;;;14.27;;
41426;SDS011;27171;51.812;19.514;2022-10-16T17:50:22;17.27;;;14.40;;
41426;SDS011;27171;51.812;19.514;2022-10-16T17:53:24;17.75;;;14.43;;
41426;SDS011;27171;51.812;19.514;2022-10-16T17:56:25;16.90;;;15.05;;
41426;SDS011;27171;51.812;19.514;2022-10-16T17:59:27;16.38;;;13.77;;
41426;SDS011;27171;51.812;19.514;2022-10-16T18:02:29;14.68;;;13.07;;
41426;SDS011;27171;51.812;19.514;2022-10-16T18:05:30;14.60;;;13.10;;
41426;SDS011;27171;51.812;19.514;2022-10-16T18:08:31;13.98;;;12.50;;
41426;SDS011;27171;51.812;19.514;2022-10-16T18:11:32;15.73;;;14.02;;
41426;SDS011;27171;51.812;19.514;2022-10-16T18:14:34;16.30;;;13.70;;
41426;SDS011;27171;51.812;19.514;2022-10-16T18:17:35;16.40;;;14.45;;
41426;SDS011;27171;51.812;19.514;2022-10-16T18:20:37;15.93;;;14.23;;
41426;SDS011;27171;51.812;19.514;2022-10-16T18:23:39;18.20;;;14.68;;
41426;SDS011;27171;51.812;19.514;2022-10-16T18:26:41;17.25;;;15.55;;
41426;SDS011;27171;51.812;19.514;2022-10-16T18:29:42;16.98;;;15.15;;
41426;SDS011;27171;51.812;19.514;2022-10-16T18:32:43;16.55;;;14.15;;
41426;SDS011;27171;51.812;19.514;2022-10-16T18:35:45;15.85;;;14.25;;
41426;SDS011;27171;51.812;19.514;2022-10-16T18:38:47;20.48;;;15.18;;
41426;SDS011;27171;51.812;19.514;2022-10-16T18:41:50;15.48;;;13.73;;
41426;SDS011;27171;51.812;19.514;2022-10-16T18:44:51;15.13;;;13.60;;
41426;SDS011;27171;51.812;19.514;2022-10-16T18:47:54;17.52;;;14.82;;
41426;SDS011;27171;51.812;19.514;2022-10-16T18:51:07;16.85;;;15.10;;
41426;SDS011;27171;51.812;19.514;2022-10-16T18:54:23;16.35;;;14.70;;
41426;SDS011;27171;51.812;19.514;2022-10-16T18:57:28;16.90;;;15.10;;
41426;SDS011;27171;51.812;19.514;2022-10-16T19:00:32;15.93;;;14.32;;
41426;SDS011;27171;51.812;19.514;2022-10-16T19:03:34;20.52;;;15.32;;
41426;SDS011;27171;51.812;19.514;2022-10-16T19:06:41;17.90;;;15.95;;
41426;SDS011;27171;51.812;19.514;2022-10-16T19:09:44;19.63;;;16.92;;
41426;SDS011;27171;51.812;19.514;2022-10-16T19:12:45;17.80;;;15.93;;
41426;SDS011;27171;51.812;19.514;2022-10-16T19:15:46;18.38;;;16.40;;
41426;SDS011;27171;51.812;19.514;2022-10-16T19:18:48;18.27;;;16.38;;
41426;SDS011;27171;51.812;19.514;2022-10-16T19:21:50;18.65;;;16.73;;
41426;SDS011;27171;51.812;19.514;2022-10-16T19:24:52;18.80;;;16.25;;
41426;SDS011;27171;51.812;19.514;2022-10-16T19:27:53;17.50;;;15.60;;
41426;SDS011;27171;51.812;19.514;2022-10-16T19:30:54;20.85;;;17.45;;
41426;SDS011;27171;51.812;19.514;2022-10-16T19:33:57;19.45;;;17.40;;
41426;SDS011;27171;51.812;19.514;2022-10-16T19:36:59;19.77;;;17.67;;
41426;SDS011;27171;51.812;19.514;2022-10-16T19:40:01;21.88;;;19.52;;